Time;durP1;ratioP1;P1;durP2;ratioP2;P2;SDS_P1;SDS_P2;PMS_P1;PMS_P2;Temp;Humidity;BMP_temperature;BMP_pressure;BME280_temperature;BME280_humidity;BME280_pressure;Samples;Min_cycle;Max_cycle;Signal;HPM_P1;HPM_P2
2022/06/09 00:01:00;;;;;;;1.92;1.20;;;;;;;26.77;41.61;96034.50;5134900;27;20666;-27
2022/06/09 00:03:31;;;;;;;4.35;1.60;;;;;;;26.79;41.68;96034.72;5134719;27;20042;-27
2022/06/09 00:05:56;;;;;;;3.13;1.40;;;;;;;26.86;41.71;96036.03;5134862;27;20015;-26
2022/06/09 00:08:22;;;;;;;3.63;1.52;;;;;;;26.83;41.58;96021.19;5134411;27;20083;-27
2022/06/09 00:10:55;;;;;;;3.20;1.70;;;;;;;26.81;41.64;96023.78;5134533;27;20136;-27
2022/06/09 00:13:21;;;;;;;;;;;;;;;26.83;41.38;96023.97;5134806;27;20039;-27
2022/06/09 00:15:46;;;;;;;1.88;1.17;;;;;;;26.81;41.27;96023.78;5134563;27;19915;-26
2022/06/09 00:18:12;;;;;;;3.38;1.30;;;;;;;26.78;41.70;96027.66;5134447;27;20022;-26
2022/06/09 00:20:37;;;;;;;3.38;1.42;;;;;;;26.81;41.23;96021.00;5134122;27;20031;-27
2022/06/09 00:23:03;;;;;;;2.70;1.20;;;;;;;26.81;41.69;96029.34;5134302;27;20035;-26
2022/06/09 00:25:28;;;;;;;4.13;1.67;;;;;;;26.81;41.41;96029.34;5134187;27;20031;-28
2022/06/09 00:27:54;;;;;;;3.25;1.42;;;;;;;26.79;41.53;96022.81;5134257;27;20031;-26
2022/06/09 00:30:20;;;;;;;3.17;1.40;;;;;;;26.82;41.23;96033.63;5134354;27;20463;-27
2022/06/09 00:32:45;;;;;;;4.00;1.40;;;;;;;26.83;41.60;96023.97;5133964;27;20023;-26
2022/06/09 00:35:12;;;;;;;3.83;1.60;;;;;;;26.77;41.36;96026.16;5134157;27;20027;-27
2022/06/09 00:37:37;;;;;;;4.22;1.42;;;;;;;26.82;41.59;96028.06;5134070;27;20034;-27
2022/06/09 00:40:05;;;;;;;3.17;1.45;;;;;;;26.73;41.33;96017.41;5134035;27;20452;-27
2022/06/09 00:42:32;;;;;;;4.88;1.60;;;;;;;26.77;41.34;96020.59;5133924;27;20045;-27
2022/06/09 00:45:27;;;;;;;4.32;1.50;;;;;;;26.77;41.83;96020.59;5133624;27;20097;-27
2022/06/09 00:48:16;;;;;;;2.72;1.45;;;;;;;26.74;41.46;96016.09;5133951;27;20029;-27
2022/06/09 00:50:43;;;;;;;3.00;1.40;;;;;;;26.76;41.41;96018.34;5131701;27;20047;-27
2022/06/09 00:53:18;;;;;;;1.77;1.27;;;;;;;26.82;41.28;96008.59;5133528;27;20128;-27
2022/06/09 00:55:45;;;;;;;3.38;1.73;;;;;;;26.71;41.44;96011.63;5133898;27;20023;-27
2022/06/09 00:58:17;;;;;;;2.90;1.30;;;;;;;26.76;41.34;96007.22;5133511;27;20027;-27
2022/06/09 01:01:04;;;;;;;3.45;1.20;;;;;;;26.75;41.12;96009.25;5133686;27;20450;-27
2022/06/09 01:03:38;;;;;;;3.55;2.00;;;;;;;26.78;41.16;96004.66;5133660;27;20031;-26
2022/06/09 01:06:09;;;;;;;3.50;1.60;;;;;;;26.80;41.09;95994.47;5133584;27;20019;-27
2022/06/09 01:08:40;;;;;;;3.10;1.30;;;;;;;26.83;40.75;95987.78;5133091;27;20035;-27
2022/06/09 01:11:06;;;;;;;4.20;1.40;;;;;;;26.79;40.39;95989.44;5133450;27;20019;-28
2022/06/09 01:13:32;;;;;;;3.58;1.42;;;;;;;26.79;40.47;95979.06;5133075;27;20068;-27
2022/06/09 01:16:24;;;;;;;3.70;1.27;;;;;;;26.81;40.48;95982.06;5133313;27;20025;-27
2022/06/09 01:18:59;;;;;;;2.00;1.50;;;;;;;26.83;39.72;95979.44;5129265;27;20039;-27
2022/06/09 01:21:46;;;;;;;4.43;1.70;;;;;;;26.80;39.97;95977.78;5132920;27;20035;-27
2022/06/09 01:24:33;;;;;;;4.40;1.50;;;;;;;26.78;40.02;95977.56;5133311;27;20042;-27
2022/06/09 01:27:26;;;;;;;1.88;1.27;;;;;;;26.82;39.93;95975.19;5133177;27;20046;-28
2022/06/09 01:30:06;;;;;;;3.60;1.42;;;;;;;26.79;39.61;95979.06;5133023;27;20039;-28
2022/06/09 01:32:51;;;;;;;3.35;1.42;;;;;;;26.83;39.48;95968.31;5132827;27;20483;-27
2022/06/09 01:35:38;;;;;;;5.25;2.17;;;;;;;26.78;39.32;95977.56;5132971;27;20148;-27
2022/06/09 01:38:04;;;;;;;2.88;1.30;;;;;;;26.80;39.51;95982.59;5132959;27;20062;-27
2022/06/09 01:40:30;;;;;;;4.20;1.75;;;;;;;26.76;39.63;95980.16;5132906;27;20110;-27
2022/06/09 01:42:58;;;;;;;5.03;1.23;;;;;;;26.79;39.39;95979.06;5132745;27;20011;-27
2022/06/09 01:45:59;;;;;;;4.70;1.75;;;;;;;26.70;39.51;95979.56;5132452;27;20050;-27
2022/06/09 01:48:25;;;;;;;2.67;1.60;;;;;;;26.72;39.68;95982.53;5129032;27;20054;-27
2022/06/09 01:50:57;;;;;;;2.60;1.40;;;;;;;26.74;39.41;95979.19;5130909;27;20110;-27
2022/06/09 01:53:35;;;;;;;5.30;1.85;;;;;;;26.67;39.57;95966.75;5132704;27;20031;-28
2022/06/09 01:56:16;;;;;;;3.30;1.40;;;;;;;26.75;39.29;95961.22;5132667;27;20576;-27
2022/06/09 01:58:51;;;;;;;4.60;2.03;;;;;;;26.73;39.58;95966.56;5132557;27;20035;-27
2022/06/09 02:01:22;;;;;;;2.47;1.17;;;;;;;26.75;39.39;95958.44;5132590;27;20087;-27
2022/06/09 02:03:50;;;;;;;2.78;1.50;;;;;;;26.70;39.73;95960.09;5132532;27;20068;-27
2022/06/09 02:06:16;;;;;;;1.95;1.13;;;;;;;26.68;39.42;95968.22;5132476;27;20023;-27
2022/06/09 02:08:42;;;;;;;2.75;1.42;;;;;;;26.72;39.38;95963.03;5132146;27;20023;-27
2022/06/09 02:11:11;;;;;;;3.60;1.40;;;;;;;26.67;39.61;95961.16;5132281;27;20031;-27
2022/06/09 02:13:42;;;;;;;3.35;1.25;;;;;;;26.71;39.70;95956.00;5132245;27;20075;-27
2022/06/09 02:16:13;;;;;;;3.90;1.95;;;;;;;26.66;39.73;95948.56;5132501;27;20075;-26
2022/06/09 02:18:45;;;;;;;2.85;1.50;;;;;;;26.66;39.41;95948.56;5133772;27;20041;-27
2022/06/09 02:21:20;;;;;;;2.58;1.40;;;;;;;26.63;39.59;95955.19;5139062;27;20042;-28
2022/06/09 02:23:47;;;;;;;2.45;1.40;;;;;;;26.65;39.27;95947.06;5139221;27;20423;-27
2022/06/09 02:26:14;;;;;;;4.18;1.55;;;;;;;26.62;39.18;95945.38;5139245;27;20052;-27
2022/06/09 02:28:40;;;;;;;3.38;1.50;;;;;;;26.64;39.18;95942.78;5139129;27;20058;-27
2022/06/09 02:31:05;;;;;;;4.13;1.48;;;;;;;26.63;39.44;95944.06;5139171;27;20047;-27
2022/06/09 02:33:31;;;;;;;3.45;1.40;;;;;;;26.64;38.91;95942.03;5138666;27;20482;-27
2022/06/09 02:35:56;;;;;;;3.53;1.80;;;;;;;26.63;39.34;95938.50;5139043;27;20097;-28
2022/06/09 02:38:22;;;;;;;4.13;1.45;;;;;;;26.60;39.00;95945.16;5138959;27;20042;-31
2022/06/09 02:40:48;;;;;;;5.18;1.75;;;;;;;26.62;39.30;95931.47;5139108;27;20019;-27
2022/06/09 02:43:14;;;;;;;4.05;1.40;;;;;;;26.61;39.45;95938.31;5139087;27;20019;-27
2022/06/09 02:45:41;;;;;;;3.13;1.67;;;;;;;26.58;39.13;95942.19;5138763;27;20526;-27
2022/06/09 02:48:07;;;;;;;5.07;1.20;;;;;;;26.59;39.18;95943.66;5138955;27;20034;-26
2022/06/09 02:50:34;;;;;;;3.85;1.58;;;;;;;26.63;39.59;95940.53;5136900;27;20122;-27
2022/06/09 02:53:00;;;;;;;4.40;1.40;;;;;;;26.60;39.64;95938.84;5138910;27;20023;-27
2022/06/09 02:55:27;;;;;;;2.70;1.27;;;;;;;26.59;39.59;95932.53;5138874;27;20083;-27
2022/06/09 02:57:53;;;;;;;5.78;1.48;;;;;;;26.54;40.15;95933.44;5138689;27;20092;-28
2022/06/09 03:00:19;;;;;;;3.63;1.30;;;;;;;26.52;40.35;95926.94;5138817;27;20044;-28
2022/06/09 03:02:53;;;;;;;1.83;1.30;;;;;;;26.50;40.51;95926.72;5138757;27;20023;-27
2022/06/09 03:05:19;;;;;;;3.75;1.20;;;;;;;26.50;40.46;95916.34;5138624;27;20035;-27
2022/06/09 03:07:44;;;;;;;3.88;1.67;;;;;;;26.51;40.73;95915.06;5138787;27;20097;-27
2022/06/09 03:10:10;;;;;;;4.80;1.50;;;;;;;26.49;41.61;95923.19;5138542;27;20473;-27
2022/06/09 03:12:35;;;;;;;4.97;1.90;;;;;;;26.48;41.41;95921.72;5138506;27;20058;-28
2022/06/09 03:15:02;;;;;;;4.68;1.80;;;;;;;26.45;42.22;95920.78;5139724;27;20019;-27
2022/06/09 03:17:27;;;;;;;5.32;1.77;;;;;;;26.44;41.87;95922.06;5140802;27;20019;-28
2022/06/09 03:19:54;;;;;;;6.70;1.83;;;;;;;26.45;42.19;95917.25;5140470;27;20509;-26
2022/06/09 03:22:20;;;;;;;4.13;1.60;;;;;;;26.50;41.97;95916.34;5140652;27;20023;-27
2022/06/09 03:24:45;;;;;;;4.55;1.95;;;;;;;26.48;42.68;95908.56;5140629;27;20019;-28
2022/06/09 03:27:10;;;;;;;5.30;2.20;;;;;;;26.45;43.05;95908.91;5140451;27;20033;-27
2022/06/09 03:29:36;;;;;;;6.45;2.03;;;;;;;26.49;42.36;95912.09;5140847;27;20371;-27
2022/06/09 03:32:02;;;;;;;4.05;1.70;;;;;;;26.44;42.42;95908.16;5135968;27;20027;-28
2022/06/09 03:34:28;;;;;;;3.30;1.55;;;;;;;26.46;43.05;95907.59;5137168;27;20023;-27
2022/06/09 03:36:53;;;;;;;4.93;1.52;;;;;;;26.47;43.08;95895.94;5137384;27;20460;-27
2022/06/09 03:39:19;;;;;;;6.38;2.17;;;;;;;26.39;43.17;95886.81;5137206;27;20102;-28
2022/06/09 03:41:44;;;;;;;7.95;2.00;;;;;;;26.41;43.32;95889.78;5137110;27;20433;-28
2022/06/09 03:44:10;;;;;;;4.57;2.20;;;;;;;26.43;42.99;95875.34;5137250;27;20460;-28
2022/06/09 03:46:35;;;;;;;5.40;1.73;;;;;;;26.42;43.68;95880.16;5137461;27;20352;-27
2022/06/09 03:49:02;;;;;;;6.70;1.77;;;;;;;26.44;43.55;95879.63;5136873;27;20067;-27
2022/06/09 03:51:28;;;;;;;4.60;1.90;;;;;;;26.42;43.71;95871.81;5136920;27;20023;-26
2022/06/09 03:53:53;;;;;;;5.75;2.00;;;;;;;26.42;44.16;95877.38;5136696;27;20038;-26
2022/06/09 03:56:20;;;;;;;4.80;2.00;;;;;;;26.41;43.43;95875.88;5136750;27;20039;-28
2022/06/09 03:58:46;;;;;;;4.95;2.13;;;;;;;26.44;43.89;95869.25;5136714;27;20031;-27
2022/06/09 04:01:17;;;;;;;5.70;2.60;;;;;;;26.42;43.95;95874.59;5136550;27;20022;-28
2022/06/09 04:03:47;;;;;;;8.18;2.55;;;;;;;26.38;43.92;95873.44;5137184;27;20058;-27
2022/06/09 04:06:16;;;;;;;6.03;2.10;;;;;;;26.47;43.49;95872.94;5136709;27;20030;-28
2022/06/09 04:08:41;;;;;;;6.35;2.38;;;;;;;26.42;43.65;95873.84;5136642;27;20027;-27
2022/06/09 04:11:08;;;;;;;6.82;2.15;;;;;;;26.38;43.98;95876.22;5136632;27;20030;-27
2022/06/09 04:13:34;;;;;;;6.97;2.30;;;;;;;26.42;43.57;95880.16;5136201;27;20084;-27
2022/06/09 04:15:59;;;;;;;5.80;2.13;;;;;;;26.42;43.88;95879.41;5136603;27;20031;-27
2022/06/09 04:18:25;;;;;;;7.95;2.40;;;;;;;26.39;44.79;95875.69;5136350;27;20056;-27
2022/06/09 04:20:50;;;;;;;5.93;2.20;;;;;;;26.42;44.16;95879.41;5136406;27;20031;-27
2022/06/09 04:23:16;;;;;;;6.22;2.10;;;;;;;26.42;44.15;95882.19;5136573;27;20044;-27
2022/06/09 04:25:41;;;;;;;7.63;2.75;;;;;;;26.39;44.70;95880.50;5136565;27;20079;-27
2022/06/09 04:28:07;;;;;;;4.43;1.80;;;;;;;26.38;44.64;95881.78;5136300;27;20026;-27
2022/06/09 04:30:32;;;;;;;6.55;2.10;;;;;;;26.42;44.32;95882.94;5135988;27;20494;-26
2022/06/09 04:32:58;;;;;;;6.57;2.17;;;;;;;26.39;44.12;95891.63;5136256;27;20022;-26
2022/06/09 04:35:24;;;;;;;7.68;2.58;;;;;;;26.39;44.30;95891.63;5136049;27;20076;-26
2022/06/09 04:38:03;;;;;;;7.32;2.40;;;;;;;26.38;44.57;95899.22;5135948;27;20087;-28
2022/06/09 04:40:37;;;;;;;6.53;2.17;;;;;;;26.38;44.61;95902.00;5136034;27;20030;-27
2022/06/09 04:43:04;;;;;;;5.70;2.38;;;;;;;26.43;44.16;95903.91;5135839;27;20019;-27
2022/06/09 04:45:30;;;;;;;9.38;2.20;;;;;;;26.39;44.57;95902.75;5135843;27;20462;-28
2022/06/09 04:47:56;;;;;;;6.28;2.72;;;;;;;26.38;44.26;95901.25;5135915;27;20047;-26
2022/06/09 04:50:22;;;;;;;6.28;2.42;;;;;;;26.45;43.69;95906.13;5135756;27;20046;-27
2022/06/09 04:52:48;;;;;;;5.80;2.30;;;;;;;26.40;44.39;95901.47;5135670;27;20435;-27
2022/06/09 04:55:14;;;;;;;7.13;2.67;;;;;;;26.39;44.62;95905.53;5135462;27;20023;-27
2022/06/09 04:57:39;;;;;;;6.28;2.50;;;;;;;26.34;43.92;95901.59;5126428;27;20029;-28
2022/06/09 05:00:09;;;;;;;6.05;2.15;;;;;;;26.29;44.22;95901.75;5113132;28;20418;-27
2022/06/09 05:02:34;;;;;;;5.32;2.05;;;;;;;26.35;44.49;95903.09;5121466;27;20106;-27
2022/06/09 05:05:01;;;;;;;8.68;2.58;;;;;;;26.37;43.88;95897.72;5115075;27;20110;-28
2022/06/09 05:07:27;;;;;;;6.10;2.40;;;;;;;26.37;44.50;95900.50;5133383;27;20030;-27
2022/06/09 05:09:53;;;;;;;7.07;2.15;;;;;;;26.29;44.54;95899.72;5133527;27;20030;-27
2022/06/09 05:12:18;;;;;;;4.30;1.95;;;;;;;26.36;43.92;95903.81;5126522;27;20043;-27
2022/06/09 05:14:44;;;;;;;8.82;2.70;;;;;;;26.36;43.50;95904.56;5103051;28;20036;-27
2022/06/09 05:17:09;;;;;;;5.50;2.50;;;;;;;26.33;43.89;95899.38;5092370;28;20063;-27
2022/06/09 05:19:35;;;;;;;3.88;2.33;;;;;;;26.34;43.65;95898.81;5092029;28;20028;-27
2022/06/09 05:22:00;;;;;;;5.68;1.98;;;;;;;26.38;43.25;95901.25;5092144;28;20467;-27
2022/06/09 05:24:25;;;;;;;7.70;1.95;;;;;;;26.37;42.74;95900.50;5092030;28;20027;-27
2022/06/09 05:26:51;;;;;;;4.20;2.00;;;;;;;26.34;42.84;95903.63;5092140;28;20028;-27
2022/06/09 05:29:16;;;;;;;5.68;1.88;;;;;;;26.33;42.24;95894.56;5098548;28;20032;-28
2022/06/09 05:31:43;;;;;;;8.50;2.47;;;;;;;26.35;41.95;95891.22;5104386;28;20298;-28
2022/06/09 05:34:10;;;;;;;9.25;2.47;;;;;;;26.32;41.83;95892.31;5104356;28;20020;-27
2022/06/09 05:36:36;;;;;;;6.85;2.22;;;;;;;26.35;41.61;95885.66;5105254;28;20103;-27
2022/06/09 05:47:13;;;;;;;5.35;1.70;;;;;;;26.31;40.94;95885.28;5093921;28;20439;-26
2022/06/09 05:49:39;;;;;;;4.30;1.40;;;;;;;26.27;40.41;95895.94;5093915;28;20020;-27
2022/06/09 05:52:04;;;;;;;4.68;1.42;;;;;;;26.26;41.10;95894.47;5093929;28;20027;-27
2022/06/09 05:54:30;;;;;;;5.05;1.67;;;;;;;26.25;40.36;95898.53;5092986;28;20480;-27
2022/06/09 05:56:57;;;;;;;5.50;1.70;;;;;;;26.32;40.81;95895.09;5093537;28;20198;-26
2022/06/09 05:59:22;;;;;;;2.58;1.33;;;;;;;26.24;40.29;95903.34;5093705;28;20035;-27
2022/06/09 06:01:48;;;;;;;2.85;1.38;;;;;;;26.29;40.55;95901.75;5093572;28;20024;-27
2022/06/09 06:04:15;;;;;;;4.22;1.70;;;;;;;26.27;40.38;95898.72;5093676;28;20024;-26
2022/06/09 06:06:41;;;;;;;4.85;1.25;;;;;;;26.23;40.31;95887.94;5093525;28;20384;-27
2022/06/09 06:09:10;;;;;;;4.90;2.10;;;;;;;26.27;40.27;95887.63;5093515;28;20420;-27
2022/06/09 06:11:37;;;;;;;5.28;1.65;;;;;;;26.30;40.07;95894.91;5094088;28;20039;-28
2022/06/09 06:14:04;;;;;;;4.28;1.58;;;;;;;26.24;40.20;95881.09;5113595;28;20031;-27
2022/06/09 06:16:29;;;;;;;3.83;1.58;;;;;;;26.25;40.23;95881.84;5113894;28;20027;-27
2022/06/09 06:18:55;;;;;;;7.45;1.45;;;;;;;26.25;40.22;95887.41;5113848;28;20024;-27
2022/06/09 06:21:21;;;;;;;4.40;1.60;;;;;;;26.18;40.35;95882.53;5116960;28;20025;-27
2022/06/09 06:23:46;;;;;;;8.65;2.00;;;;;;;26.19;40.22;95884.78;5120037;28;20027;-27
2022/06/09 06:26:13;;;;;;;5.65;1.90;;;;;;;26.19;40.30;95890.34;5111824;28;20365;-27
2022/06/09 06:28:38;;;;;;;5.90;1.70;;;;;;;26.20;40.06;95880.72;5130590;28;20077;-27
2022/06/09 06:31:04;;;;;;;4.28;1.35;;;;;;;26.11;40.27;95875.63;5132295;28;20023;-27
2022/06/09 06:33:29;;;;;;;3.67;1.60;;;;;;;26.23;40.31;95878.88;5131810;28;20122;-27
2022/06/09 06:35:55;;;;;;;3.83;1.20;;;;;;;26.13;40.46;95873.78;5132213;28;20027;-27
2022/06/09 06:38:21;;;;;;;4.30;1.40;;;;;;;26.08;40.43;95874.69;5131963;28;20080;-27
2022/06/09 06:40:47;;;;;;;5.13;1.48;;;;;;;26.15;40.59;95872.50;5113214;28;20059;-27
2022/06/09 06:43:13;;;;;;;5.65;1.70;;;;;;;26.14;40.35;95874.53;5111491;28;20448;-26
2022/06/09 06:45:38;;;;;;;3.95;1.85;;;;;;;26.09;40.35;95872.63;5111346;28;20062;-27
2022/06/09 06:48:05;;;;;;;15.55;1.90;;;;;;;26.19;40.18;95879.22;5111717;28;20042;-27
2022/06/09 06:50:31;;;;;;;10.45;2.25;;;;;;;26.15;40.50;95870.47;5111474;28;20059;-27
2022/06/09 06:52:56;;;;;;;7.55;1.98;;;;;;;26.12;40.34;95886.19;5121702;28;20027;-27
2022/06/09 06:55:22;;;;;;;6.65;1.55;;;;;;;26.04;41.04;95874.28;5131574;28;20029;-26
2022/06/09 06:57:48;;;;;;;4.90;1.90;;;;;;;26.13;40.85;95876.56;5131528;28;20031;-26
2022/06/09 07:00:18;;;;;;;5.95;1.90;;;;;;;24.73;43.89;95875.34;5131050;28;20035;-27
2022/06/09 07:02:45;;;;;;;6.10;1.50;;;;;;;25.38;42.69;95871.75;5114437;28;20057;-28
2022/06/09 07:05:10;;;;;;;6.97;1.58;;;;;;;25.68;41.93;95870.63;5112115;28;20027;-27
2022/06/09 07:07:37;;;;;;;5.13;1.58;;;;;;;25.79;41.38;95869.59;5115218;28;20452;-27
2022/06/09 07:10:04;;;;;;;6.95;1.95;;;;;;;25.84;41.45;95865.97;5114895;28;20399;-27
2022/06/09 07:12:36;;;;;;;5.68;1.60;;;;;;;25.91;41.40;95870.81;5114683;28;20121;-28
2022/06/09 07:15:03;;;;;;;5.90;1.52;;;;;;;25.95;41.40;95866.44;5115042;28;20500;-27
2022/06/09 07:17:29;;;;;;;6.40;1.60;;;;;;;25.95;41.36;95863.66;5135363;27;20031;-27
2022/06/09 07:19:54;;;;;;;4.18;1.90;;;;;;;25.92;41.44;95867.50;5133936;27;20421;-27
2022/06/09 07:22:23;;;;;;;4.50;1.55;;;;;;;25.76;41.93;95868.66;5135341;27;20027;-28
2022/06/09 07:24:48;;;;;;;4.93;1.95;;;;;;;25.83;41.52;95864.47;5135499;27;20067;-27
2022/06/09 07:27:15;;;;;;;5.05;1.63;;;;;;;25.88;41.61;95867.09;5135329;27;20065;-29
2022/06/09 07:29:41;;;;;;;7.07;1.73;;;;;;;25.91;41.28;95865.28;5135330;27;20383;-27
2022/06/09 07:32:07;;;;;;;6.32;1.75;;;;;;;25.84;41.35;95868.75;5104111;27;20383;-28
2022/06/09 07:34:33;;;;;;;4.60;1.63;;;;;;;25.75;41.49;95869.94;5134215;27;20027;-27
2022/06/09 07:36:59;;;;;;;4.82;2.10;;;;;;;25.85;41.65;95865.41;5135291;27;20405;-28
2022/06/09 07:39:25;;;;;;;4.00;2.08;;;;;;;25.88;41.57;95858.00;5135369;27;20081;-27
2022/06/09 07:41:51;;;;;;;10.77;2.20;;;;;;;25.86;41.27;95863.34;5135157;27;20027;-28
2022/06/09 07:44:17;;;;;;;6.22;1.48;;;;;;;25.87;41.38;95862.06;5135169;27;20018;-27
2022/06/09 07:46:42;;;;;;;3.50;1.80;;;;;;;25.89;41.29;95862.28;5134890;27;20113;-28
2022/06/09 07:49:09;;;;;;;5.28;1.45;;;;;;;25.85;41.56;95851.50;5134984;27;20038;-28
2022/06/09 07:51:35;;;;;;;4.55;1.50;;;;;;;25.86;41.11;95850.22;5136950;27;20024;-27
2022/06/09 07:54:01;;;;;;;6.05;1.67;;;;;;;25.90;41.33;95850.63;5118283;27;20407;-27
2022/06/09 07:56:28;;;;;;;4.28;1.52;;;;;;;25.86;41.08;95841.88;5137007;27;20019;-27
2022/06/09 07:58:54;;;;;;;3.88;1.75;;;;;;;25.83;41.37;95842.25;5137026;27;20046;-27
2022/06/09 08:01:22;;;;;;;4.47;1.90;;;;;;;25.54;41.10;95833.78;5136669;27;20463;-28
2022/06/09 08:03:48;;;;;;;3.25;1.30;;;;;;;25.60;40.88;95836.44;5136740;27;20077;-28
2022/06/09 08:06:14;;;;;;;2.72;1.35;;;;;;;25.53;40.58;95835.09;5136937;27;20455;-27
2022/06/09 08:08:39;;;;;;;3.45;1.33;;;;;;;25.40;40.90;95838.66;5136440;27;20098;-27
2022/06/09 08:11:07;;;;;;;4.72;1.65;;;;;;;25.40;41.01;95824.78;5136907;27;20087;-27
2022/06/09 08:13:33;;;;;;;5.60;1.55;;;;;;;25.50;40.74;95827.06;5136001;27;20055;-28
2022/06/09 08:15:59;;;;;;;3.63;1.08;;;;;;;25.24;41.17;95816.81;5136392;27;20051;-28
2022/06/09 08:18:25;;;;;;;4.75;1.50;;;;;;;25.45;40.82;95816.88;5135911;27;20062;-28
2022/06/09 08:20:51;;;;;;;3.38;1.40;;;;;;;25.48;40.86;95824.09;5136356;27;20035;-28
2022/06/09 08:23:21;;;;;;;3.00;1.20;;;;;;;25.40;40.42;95815.69;5136534;27;20026;-29
2022/06/09 08:25:46;;;;;;;3.40;1.60;;;;;;;25.66;40.47;95814.88;5136306;27;20019;-27
2022/06/09 08:28:18;;;;;;;6.28;1.48;;;;;;;25.45;40.73;95819.66;5136279;27;20031;-28
2022/06/09 08:30:46;;;;;;;2.53;1.10;;;;;;;25.33;40.79;95819.91;5136167;27;20023;-28
2022/06/09 08:33:12;;;;;;;4.22;1.30;;;;;;;25.57;40.32;95809.75;5136158;27;20023;-27
2022/06/09 08:35:38;;;;;;;6.18;1.40;;;;;;;25.52;40.07;95814.16;5136007;27;20360;-27
2022/06/09 08:38:05;;;;;;;2.78;1.50;;;;;;;25.71;40.11;95800.84;5135800;27;20124;-27
2022/06/09 08:40:45;;;;;;;3.17;1.38;;;;;;;25.53;40.38;95798.25;5136076;27;20386;-28
2022/06/09 08:43:32;;;;;;;3.75;1.40;;;;;;;25.72;40.27;95804.34;5136035;27;20451;-28
2022/06/09 08:46:02;;;;;;;3.22;1.55;;;;;;;25.24;41.37;95800.91;5136010;27;20027;-27
2022/06/09 08:48:38;;;;;;;3.17;1.30;;;;;;;25.52;40.88;95800.28;5135734;27;20023;-28
2022/06/09 08:51:13;;;;;;;3.67;1.45;;;;;;;25.31;40.97;95802.28;5135947;27;20023;-28
2022/06/09 08:53:48;;;;;;;2.35;1.27;;;;;;;25.34;40.78;95799.19;5135673;27;20520;-28
2022/06/09 08:56:26;;;;;;;6.18;2.13;;;;;;;25.45;40.60;95794.66;5135961;27;20065;-27
2022/06/09 08:58:58;;;;;;;4.90;1.38;;;;;;;25.52;41.07;95794.72;5135978;27;20023;-27
2022/06/09 09:01:41;;;;;;;1.45;1.00;;;;;;;25.51;41.19;95806.38;5135861;27;20024;-28
2022/06/09 09:04:23;;;;;;;4.45;1.50;;;;;;;25.72;40.07;95801.56;5135694;27;20375;-26
2022/06/09 09:07:07;;;;;;;3.58;1.40;;;;;;;25.37;41.31;95811.97;5135021;27;20042;-27
2022/06/09 09:09:35;;;;;;;4.05;1.55;;;;;;;25.28;41.36;95811.69;5134312;27;20034;-27
2022/06/09 09:12:18;;;;;;;4.35;1.30;;;;;;;24.89;41.94;95815.28;5134820;27;20054;-27
2022/06/09 09:14:54;;;;;;;3.03;1.10;;;;;;;25.33;41.12;95819.91;5135193;27;20034;-28
2022/06/09 09:17:54;;;;;;;2.38;1.27;;;;;;;25.53;40.42;95818.41;5135161;27;20076;-28
2022/06/09 09:20:30;;;;;;;2.50;1.25;;;;;;;25.33;41.25;95819.91;5135493;27;20023;-27
2022/06/09 09:23:14;;;;;;;5.55;1.45;;;;;;;25.44;41.08;95813.34;5135336;27;20023;-27
2022/06/09 09:26:01;;;;;;;4.22;1.58;;;;;;;25.39;41.32;95811.44;5135027;27;20035;-27
2022/06/09 09:28:37;;;;;;;4.13;1.10;;;;;;;25.41;41.30;95815.16;5134134;27;20421;-27
2022/06/09 09:31:33;;;;;;;2.08;1.17;;;;;;;25.20;42.07;95816.44;5135028;27;20023;-27
2022/06/09 09:34:02;;;;;;;3.33;1.50;;;;;;;25.33;41.64;95819.91;5134909;27;20031;-27
2022/06/09 09:36:37;;;;;;;4.38;1.40;;;;;;;25.35;41.71;95822.88;5134961;27;20527;-27
2022/06/09 09:39:12;;;;;;;3.17;1.20;;;;;;;25.34;41.86;95826.94;5134926;27;20027;-29
2022/06/09 09:41:39;;;;;;;2.53;1.05;;;;;;;25.36;41.75;95818.06;5134774;27;20076;-27
2022/06/09 09:44:18;;;;;;;2.53;1.30;;;;;;;25.29;42.51;95818.72;5134753;27;20046;-26
2022/06/09 09:46:53;;;;;;;4.53;1.63;;;;;;;25.35;42.17;95814.53;5134817;27;20023;-29
2022/06/09 09:49:32;;;;;;;3.78;1.23;;;;;;;25.44;42.10;95807.03;5134803;27;20097;-28
2022/06/09 09:51:59;;;;;;;4.15;1.20;;;;;;;25.61;41.59;95804.63;5116296;27;20485;-27
2022/06/09 09:54:38;;;;;;;3.72;1.55;;;;;;;25.63;42.50;95796.50;5134795;27;20080;-27
2022/06/09 09:57:08;;;;;;;3.95;1.13;;;;;;;25.71;42.25;95798.09;5134664;27;20030;-28
2022/06/09 09:59:44;;;;;;;3.58;1.70;;;;;;;25.71;43.08;95789.75;5134618;27;20026;-27
2022/06/09 10:08:41;;;;;;;4.28;1.30;;;;;;;25.51;42.89;95784.16;5134851;27;20383;-27
2022/06/09 10:14:03;;;;;;;5.22;1.40;;;;;;;25.77;41.89;95770.91;5134462;27;20068;-28
2022/06/09 10:16:32;;;;;;;3.78;1.00;;;;;;;25.54;42.68;95771.97;5134560;27;20390;-27
2022/06/09 10:19:05;;;;;;;6.03;1.52;;;;;;;25.28;42.67;95773.59;5134275;28;20015;-28
2022/06/09 10:21:52;;;;;;;2.65;1.10;;;;;;;25.57;41.84;95762.56;5134398;28;20031;-28
2022/06/09 10:24:24;;;;;;;3.75;1.30;;;;;;;25.36;42.35;95759.75;5134435;28;20056;-27
2022/06/09 10:26:54;;;;;;;2.33;1.25;;;;;;;25.51;42.03;95750.84;5134271;28;20451;-28
2022/06/09 10:29:43;;;;;;;4.05;1.45;;;;;;;25.12;42.54;95738.63;5134231;28;20379;-28
2022/06/09 10:32:21;;;;;;;3.47;1.27;;;;;;;25.39;42.27;95748.34;5134339;28;20076;-27
2022/06/09 10:35:00;;;;;;;3.35;1.27;;;;;;;25.55;41.97;95752.00;5134207;28;20110;-27
2022/06/09 10:37:51;;;;;;;7.10;1.80;;;;;;;25.58;41.88;95755.72;5134504;28;20019;-27
2022/06/09 10:40:24;;;;;;;3.28;1.00;;;;;;;25.29;42.51;95771.56;5135656;27;20027;-28
2022/06/09 10:42:59;;;;;;;4.22;1.33;;;;;;;25.53;41.92;95767.69;5138651;27;20022;-28
2022/06/09 10:45:49;;;;;;;2.20;1.20;;;;;;;25.53;42.27;95776.03;5138268;27;20417;-27
2022/06/09 10:56:40;;;;;;;3.50;1.10;;;;;;;25.24;42.75;95762.06;5138363;27;20062;-27
2022/06/09 10:59:35;;;;;;;2.47;1.00;;;;;;;25.22;43.00;95764.63;5138195;27;20455;-27
2022/06/09 11:02:02;;;;;;;6.13;1.63;;;;;;;25.51;42.25;95762.69;5137230;27;20039;-28
2022/06/09 11:04:34;;;;;;;1.75;1.00;;;;;;;25.50;42.04;95766.00;5138175;27;20036;-27
2022/06/09 11:07:13;;;;;;;5.60;1.30;;;;;;;25.36;42.67;95763.28;5119591;27;20030;-27
2022/06/09 11:09:53;;;;;;;4.28;1.40;;;;;;;25.47;42.50;95775.44;5120607;27;20022;-27
2022/06/09 11:12:24;;;;;;;3.80;1.38;;;;;;;25.62;42.26;95772.81;5137555;27;20096;-28
2022/06/09 11:15:19;;;;;;;3.08;0.90;;;;;;;25.52;43.21;95780.09;5137538;27;20027;-26
2022/06/09 11:18:03;;;;;;;2.72;1.35;;;;;;;25.55;43.27;95765.13;5098436;27;20103;-27
2022/06/09 11:20:49;;;;;;;4.13;1.05;;;;;;;25.47;43.88;95751.16;5137593;27;20030;-28
2022/06/09 11:23:36;;;;;;;4.85;1.17;;;;;;;25.49;44.01;95736.75;5137466;27;20027;-28
2022/06/09 11:26:15;;;;;;;3.65;1.20;;;;;;;25.38;45.07;95737.78;5137538;27;20031;-28
2022/06/09 11:29:04;;;;;;;2.33;1.08;;;;;;;25.28;44.38;95739.53;5137325;27;20098;-27
2022/06/09 11:31:44;;;;;;;3.70;1.10;;;;;;;25.06;44.71;95740.81;5137368;27;20027;-27
2022/06/09 11:34:13;;;;;;;4.65;1.50;;;;;;;25.12;45.82;95715.69;5137668;27;20399;-26
2022/06/09 11:37:07;;;;;;;5.15;2.08;;;;;;;25.13;45.66;95722.72;5137102;27;20114;-27
2022/06/09 11:39:50;;;;;;;4.05;1.35;;;;;;;25.29;45.49;95733.44;5137297;27;20106;-27
2022/06/09 11:42:15;;;;;;;3.50;1.20;;;;;;;25.22;45.43;95733.38;5137216;27;20080;-27
2022/06/09 11:44:42;;;;;;;3.33;1.35;;;;;;;25.00;46.35;95742.94;5137054;27;20023;-28
2022/06/09 11:47:34;;;;;;;3.33;1.80;;;;;;;25.08;46.08;95738.25;5137208;27;20023;-28
2022/06/09 11:50:05;;;;;;;4.93;1.70;;;;;;;24.88;47.11;95755.56;5137204;27;20367;-27
2022/06/09 11:52:45;;;;;;;3.63;1.55;;;;;;;24.75;47.21;95747.25;5136002;27;20039;-27
2022/06/09 11:55:27;;;;;;;4.60;1.50;;;;;;;24.77;46.91;95730.84;5118520;27;20383;-29
2022/06/09 11:57:53;;;;;;;3.97;1.37;;;;;;;24.98;46.51;95723.31;5136743;27;20027;-27
2022/06/09 12:00:19;;;;;;;3.55;1.65;;;;;;;25.15;45.76;95734.78;5136773;27;20023;-27
2022/06/09 12:03:26;;;;;;;5.57;1.63;;;;;;;25.22;45.60;95739.66;5137038;27;20092;-27
2022/06/09 12:06:03;;;;;;;5.20;1.95;;;;;;;25.30;45.39;95748.06;5080444;27;20038;-27
2022/06/09 12:08:34;;;;;;;2.78;1.55;;;;;;;25.23;45.56;95748.72;5136682;27;20054;-28
2022/06/09 12:11:08;;;;;;;7.63;1.95;;;;;;;25.28;44.94;95768.03;5136982;27;20027;-27
2022/06/09 12:13:35;;;;;;;4.25;1.33;;;;;;;25.30;45.08;95775.81;5136146;27;20046;-28
2022/06/09 12:16:20;;;;;;;3.55;1.52;;;;;;;25.39;44.46;95767.75;5136574;27;20050;-27